Time;durP1;ratioP1;P1;durP2;ratioP2;P2;SDS_P1;SDS_P2;PMS_P1;PMS_P2;Temp;Humidity;BMP_temperature;BMP_pressure;BME280_temperature;BME280_humidity;BME280_pressure;Samples;Min_cycle;Max_cycle;Signal;HPM_P1;HPM_P2
2022/06/20 00:01:12;;;;;;;14.93;5.00;;;;;;;15.68;72.25;101290.00;5065326;28;20053;-65
2022/06/20 00:03:41;;;;;;;16.08;5.40;;;;;;;15.67;71.98;101295.22;5062558;28;20112;-65
2022/06/20 00:06:12;;;;;;;14.73;5.30;;;;;;;15.66;71.86;101297.00;5066053;28;20039;-65
2022/06/20 00:08:37;;;;;;;13.88;5.70;;;;;;;15.63;71.60;101296.97;5059831;28;20020;-66
2022/06/20 00:11:02;;;;;;;16.42;5.65;;;;;;;15.62;72.23;101293.44;5068921;28;20039;-65
2022/06/20 00:13:32;;;;;;;21.67;5.95;;;;;;;15.60;72.04;101281.16;5068102;28;20429;-65
2022/06/20 00:16:00;;;;;;;23.77;5.60;;;;;;;15.59;72.06;101279.41;5068701;28;20441;-65
2022/06/20 00:18:26;;;;;;;11.05;4.70;;;;;;;15.57;71.47;101299.50;5055621;28;20044;-65
2022/06/20 00:20:51;;;;;;;19.80;5.55;;;;;;;15.55;71.38;101309.13;5061117;28;20029;-65
2022/06/20 00:23:17;;;;;;;14.73;4.80;;;;;;;15.51;71.60;101313.47;5058298;28;20025;-65
2022/06/20 00:25:42;;;;;;;15.07;4.68;;;;;;;15.50;71.60;101313.44;5054112;28;20020;-65
2022/06/20 00:28:09;;;;;;;16.33;5.32;;;;;;;15.52;71.60;101346.75;5059623;28;20105;-65
2022/06/20 00:30:36;;;;;;;14.57;5.10;;;;;;;15.48;71.06;101356.34;5068895;28;20083;-65
2022/06/20 00:33:01;;;;;;;18.95;5.30;;;;;;;15.45;71.66;101350.16;5063076;28;20507;-65
2022/06/20 00:35:27;;;;;;;14.95;5.55;;;;;;;15.43;71.70;101350.13;5070061;28;20039;-65
2022/06/20 00:37:56;;;;;;;17.55;5.60;;;;;;;15.44;72.01;101377.31;5068780;28;20025;-65
2022/06/20 00:40:29;;;;;;;16.25;5.05;;;;;;;15.45;72.10;101398.31;5056986;28;20085;-65
2022/06/20 00:42:55;;;;;;;18.40;5.30;;;;;;;15.45;71.62;101408.84;5067639;28;20040;-65
2022/06/20 00:45:23;;;;;;;21.08;5.55;;;;;;;15.46;72.15;101426.34;5067631;28;20262;-65
2022/06/20 00:47:51;;;;;;;11.75;4.43;;;;;;;15.48;72.05;101443.00;5059241;28;20088;-66
2022/06/20 00:50:27;;;;;;;13.50;4.75;;;;;;;15.51;72.33;101496.44;5068463;28;20028;-66
2022/06/20 00:53:15;;;;;;;25.92;5.22;;;;;;;15.51;71.23;101520.06;5071383;28;20111;-65
2022/06/20 00:55:50;;;;;;;14.25;5.30;;;;;;;15.46;71.74;101548.91;5047636;28;20044;-65
2022/06/20 00:58:40;;;;;;;16.30;5.15;;;;;;;15.43;71.87;101547.09;5059503;28;20104;-65
2022/06/20 01:01:11;;;;;;;12.93;5.15;;;;;;;15.37;72.08;101536.50;5054636;28;20024;-65
2022/06/20 01:03:44;;;;;;;13.95;5.03;;;;;;;15.34;73.05;101504.97;5067820;28;20039;-65
2022/06/20 01:06:13;;;;;;;16.38;5.15;;;;;;;15.34;72.43;101489.22;5073455;28;20043;-65
2022/06/20 01:08:47;;;;;;;15.48;5.32;;;;;;;15.35;72.83;101471.69;5065627;28;20484;-65
2022/06/20 01:11:17;;;;;;;12.30;4.85;;;;;;;15.36;73.21;101468.22;5048952;28;20025;-65
2022/06/20 01:13:44;;;;;;;15.70;5.30;;;;;;;15.38;73.03;101463.84;5058831;28;20024;-65
2022/06/20 01:16:12;;;;;;;16.05;4.82;;;;;;;15.35;73.52;101459.47;5064643;28;20041;-66
2022/06/20 01:18:40;;;;;;;15.02;5.20;;;;;;;15.33;73.38;101440.16;5065664;28;20025;-65
2022/06/20 01:21:15;;;;;;;11.63;4.80;;;;;;;15.31;74.09;101449.78;5065195;28;20029;-65
2022/06/20 01:24:01;;;;;;;14.23;5.22;;;;;;;15.31;73.45;101431.41;5064838;28;20487;-65
2022/06/20 01:26:38;;;;;;;12.32;4.93;;;;;;;15.31;72.85;101420.91;5061766;28;20112;-65
2022/06/20 01:29:07;;;;;;;16.27;5.13;;;;;;;15.30;72.90;101403.38;5060775;28;20660;-65
2022/06/20 01:31:37;;;;;;;15.55;5.05;;;;;;;15.24;73.82;101387.56;5069616;28;20047;-65
2022/06/20 01:34:02;;;;;;;17.90;5.50;;;;;;;15.22;73.78;101391.88;5056788;28;20033;-65
2022/06/20 01:39:17;;;;;;;15.68;5.10;;;;;;;15.20;73.59;101391.00;5057858;28;20602;-66
2022/06/20 01:44:31;;;;;;;13.63;4.97;;;;;;;15.11;73.19;101374.25;5066135;28;20059;-67
2022/06/20 01:46:56;;;;;;;15.93;5.50;;;;;;;15.11;73.68;101365.50;5056939;28;20024;-66
2022/06/20 01:49:24;;;;;;;10.88;5.07;;;;;;;15.08;73.98;101365.47;5066368;28;20032;-66
2022/06/20 01:51:54;;;;;;;16.13;5.28;;;;;;;15.07;73.47;101367.19;5059714;28;20282;-66
2022/06/20 01:54:22;;;;;;;17.88;5.07;;;;;;;15.07;73.45;101361.94;5066065;28;20376;-66
2022/06/20 01:56:51;;;;;;;12.20;4.43;;;;;;;15.06;72.99;101356.66;5064092;28;20543;-66
2022/06/20 01:59:21;;;;;;;13.32;4.75;;;;;;;15.06;73.25;101356.66;5055299;28;20032;-65
2022/06/20 02:01:47;;;;;;;12.30;4.45;;;;;;;15.05;72.89;101365.44;5072153;28;20020;-67
2022/06/20 02:04:18;;;;;;;14.10;4.63;;;;;;;15.00;73.06;101361.84;5058033;28;20027;-67
2022/06/20 02:06:45;;;;;;;12.65;4.72;;;;;;;14.97;73.26;101352.19;5058527;28;20036;-65
2022/06/20 02:09:11;;;;;;;13.30;4.95;;;;;;;14.94;73.15;101354.78;5055165;28;20029;-65
2022/06/20 02:11:42;;;;;;;13.80;5.43;;;;;;;14.90;73.38;101338.13;5072120;28;20025;-65
2022/06/20 02:14:18;;;;;;;13.43;4.78;;;;;;;14.89;73.44;101328.47;5059758;28;20025;-65
2022/06/20 02:16:48;;;;;;;11.80;4.50;;;;;;;14.89;73.21;101330.22;5072192;28;20039;-65
2022/06/20 02:19:18;;;;;;;15.57;4.80;;;;;;;14.86;73.08;101327.53;5065508;28;20020;-65
2022/06/20 02:21:45;;;;;;;13.52;4.72;;;;;;;14.86;73.06;101317.03;5072220;28;20024;-65
2022/06/20 02:24:14;;;;;;;12.70;4.65;;;;;;;14.86;73.23;101314.41;5060687;28;20029;-65
2022/06/20 02:26:41;;;;;;;13.82;5.20;;;;;;;14.85;73.08;101300.44;5047018;28;20111;-65
2022/06/20 02:29:23;;;;;;;15.57;4.88;;;;;;;14.84;73.44;101308.28;5054136;28;20326;-66
2022/06/20 02:31:54;;;;;;;11.07;5.22;;;;;;;14.82;72.90;101308.25;5052010;28;20226;-65
2022/06/20 02:34:22;;;;;;;15.43;5.22;;;;;;;14.77;73.42;101304.69;5061033;28;20539;-65
2022/06/20 02:36:49;;;;;;;12.75;4.90;;;;;;;14.75;73.26;101304.66;5062916;28;20029;-65
2022/06/20 02:39:16;;;;;;;17.48;5.07;;;;;;;14.73;72.95;101301.16;5061101;28;20519;-65
2022/06/20 02:41:44;;;;;;;14.63;5.38;;;;;;;14.70;72.91;101306.34;5071461;28;20027;-65
2022/06/20 02:44:16;;;;;;;14.63;5.13;;;;;;;14.70;73.04;101301.09;5058629;28;20024;-65
2022/06/20 02:46:42;;;;;;;9.90;4.88;;;;;;;14.68;73.42;101297.56;5063727;28;20067;-65
2022/06/20 02:49:09;;;;;;;14.20;4.68;;;;;;;14.68;73.23;101291.44;5056631;28;20102;-65
2022/06/20 02:51:41;;;;;;;13.13;4.97;;;;;;;14.67;72.63;101287.06;5071385;28;20086;-66
2022/06/20 02:54:11;;;;;;;18.30;5.18;;;;;;;14.62;72.94;101281.75;5063539;28;20032;-64
2022/06/20 02:56:43;;;;;;;11.95;4.30;;;;;;;14.61;72.89;101272.06;5071349;28;20029;-65
2022/06/20 02:59:17;;;;;;;16.42;5.15;;;;;;;14.60;72.90;101262.47;5061439;28;20476;-65
2022/06/20 03:01:46;;;;;;;17.27;5.10;;;;;;;14.60;73.17;101257.22;5054512;28;20060;-64
2022/06/20 03:04:11;;;;;;;10.35;4.65;;;;;;;14.55;72.87;101248.41;5067078;28;20112;-65
2022/06/20 03:06:42;;;;;;;12.07;4.60;;;;;;;14.51;72.84;101243.97;5069597;28;20066;-65
2022/06/20 03:09:12;;;;;;;16.05;4.57;;;;;;;14.51;72.93;101257.06;5067277;28;20032;-65
2022/06/20 03:11:39;;;;;;;13.77;4.50;;;;;;;14.46;73.35;101249.16;5070957;28;20037;-65
2022/06/20 03:14:10;;;;;;;15.75;4.93;;;;;;;14.48;73.26;101262.28;5066094;28;20056;-65
2022/06/20 03:16:35;;;;;;;12.15;4.78;;;;;;;14.46;72.67;101266.63;5063122;28;20025;-65
2022/06/20 03:19:02;;;;;;;12.63;5.13;;;;;;;14.44;72.99;101261.38;5056058;28;20438;-65
2022/06/20 03:21:33;;;;;;;11.18;5.15;;;;;;;14.43;72.22;101270.97;5069425;28;20024;-65
2022/06/20 03:23:59;;;;;;;12.45;4.60;;;;;;;14.42;72.85;101265.69;5070500;28;20021;-65
2022/06/20 03:26:27;;;;;;;10.48;4.53;;;;;;;14.43;72.71;101280.56;5049270;28;20032;-66
2022/06/20 03:28:53;;;;;;;12.90;5.32;;;;;;;14.42;72.78;101287.56;5068805;28;20047;-65
2022/06/20 03:31:19;;;;;;;12.43;5.00;;;;;;;14.41;72.64;101298.91;5070363;28;20021;-65
2022/06/20 03:33:46;;;;;;;14.02;4.72;;;;;;;14.41;72.49;101293.66;5070290;28;20103;-65
2022/06/20 03:36:14;;;;;;;13.70;4.90;;;;;;;14.39;73.43;101286.63;5056568;28;20527;-65
2022/06/20 03:38:43;;;;;;;11.82;5.00;;;;;;;14.38;72.81;101293.63;5052543;28;20029;-65
2022/06/20 03:41:12;;;;;;;11.90;5.07;;;;;;;14.39;73.31;101305.84;5059195;28;20027;-65
2022/06/20 03:43:39;;;;;;;;;;;;;;;14.46;71.95;101312.09;5062560;28;20032;-65
2022/06/20 03:46:14;;;;;;;12.70;5.20;;;;;;;14.41;73.15;101322.50;5070187;28;20399;-64
2022/06/20 03:48:45;;;;;;;11.48;4.50;;;;;;;14.42;73.40;101326.00;5064007;28;20067;-65
2022/06/20 03:51:16;;;;;;;9.07;4.38;;;;;;;14.42;73.44;101339.09;5070215;28;20064;-66
2022/06/20 03:53:46;;;;;;;11.07;4.22;;;;;;;14.40;73.49;101352.19;5062380;28;20035;-66
2022/06/20 03:56:20;;;;;;;10.20;4.70;;;;;;;14.40;73.81;101357.44;5070003;28;20028;-65
2022/06/20 03:58:59;;;;;;;13.52;4.70;;;;;;;14.40;73.41;101360.06;5069990;28;20028;-65
2022/06/20 04:01:37;;;;;;;10.40;4.20;;;;;;;14.40;73.58;101362.69;5063535;28;20098;-65
2022/06/20 04:04:02;;;;;;;12.65;4.43;;;;;;;14.41;73.73;101355.69;5064592;28;20067;-65
2022/06/20 04:06:31;;;;;;;16.55;5.10;;;;;;;14.40;73.78;101357.44;5066357;28;20036;-66
2022/06/20 04:12:08;;;;;;;11.38;4.15;;;;;;;14.41;73.77;101356.59;5069807;28;20094;-65
2022/06/20 04:14:41;;;;;;;12.18;4.63;;;;;;;14.39;74.75;101363.53;5051254;28;20132;-66
2022/06/20 04:20:33;;;;;;;10.43;4.25;;;;;;;14.43;74.78;101374.97;5061263;28;20507;-65
2022/06/20 04:23:03;;;;;;;13.90;4.22;;;;;;;14.43;75.22;101378.47;5065071;28;20090;-65
2022/06/20 04:25:37;;;;;;;11.15;4.10;;;;;;;14.42;75.62;101379.34;5057953;28;20028;-65
2022/06/20 04:28:17;;;;;;;11.02;4.28;;;;;;;14.43;75.60;101388.94;5069920;28;20036;-65
2022/06/20 04:30:54;;;;;;;13.30;4.53;;;;;;;14.46;75.25;101384.63;5068700;28;20025;-65
2022/06/20 04:33:38;;;;;;;15.05;4.20;;;;;;;14.46;75.52;101389.88;5057733;28;20510;-65
2022/06/20 04:36:29;;;;;;;13.93;4.30;;;;;;;14.47;75.80;101389.00;5061780;28;20036;-64
2022/06/20 04:39:19;;;;;;;14.10;4.47;;;;;;;14.47;75.99;101391.63;5040142;28;20144;-65
2022/06/20 04:41:51;;;;;;;12.50;4.63;;;;;;;14.47;76.15;101396.84;5049079;28;20044;-65
2022/06/20 04:44:31;;;;;;;12.27;4.28;;;;;;;14.47;75.89;101397.75;5064036;28;20578;-65
2022/06/20 04:47:24;;;;;;;13.02;4.68;;;;;;;14.51;75.18;101399.59;5055278;28;20500;-65
2022/06/20 04:49:49;;;;;;;14.32;4.47;;;;;;;14.52;76.11;101400.44;5058347;28;20484;-65
2022/06/20 04:52:20;;;;;;;13.50;4.30;;;;;;;14.52;75.74;101409.19;5045991;28;20025;-65
2022/06/20 04:54:46;;;;;;;13.98;4.82;;;;;;;14.55;76.31;101411.00;5051336;28;20461;-65
2022/06/20 04:57:13;;;;;;;12.10;4.03;;;;;;;14.54;76.41;101410.13;5050392;28;20032;-66
2022/06/20 04:59:40;;;;;;;12.52;4.50;;;;;;;14.55;76.43;101422.34;5057676;28;20036;-65
2022/06/20 05:02:12;;;;;;;10.80;3.88;;;;;;;14.57;76.29;101414.50;5049612;28;20091;-65
2022/06/20 05:04:41;;;;;;;14.95;4.78;;;;;;;14.60;76.25;101417.22;5052314;28;20024;-65
2022/06/20 05:07:14;;;;;;;10.20;4.30;;;;;;;14.61;76.22;101421.56;5060416;28;20146;-65
2022/06/20 05:09:45;;;;;;;14.38;4.20;;;;;;;14.63;77.22;101419.91;5061640;28;20387;-65
2022/06/20 05:12:22;;;;;;;14.10;4.50;;;;;;;14.65;76.11;101412.94;5069306;28;20392;-65
2022/06/20 05:15:02;;;;;;;18.50;5.68;;;;;;;14.67;76.36;101421.72;5052614;28;20068;-66
2022/06/20 05:17:30;;;;;;;18.48;4.65;;;;;;;14.68;77.07;101422.59;5065264;28;20040;-65
2022/06/20 05:20:01;;;;;;;12.75;4.90;;;;;;;14.70;77.11;101426.13;5055954;28;20028;-65
2022/06/20 05:22:31;;;;;;;17.75;5.10;;;;;;;14.71;76.75;101427.88;5052674;28;20039;-65
2022/06/20 05:25:00;;;;;;;17.17;5.10;;;;;;;14.71;77.11;101433.13;5064836;28;20029;-65
2022/06/20 05:27:30;;;;;;;13.52;4.90;;;;;;;14.74;76.64;101441.94;5050756;28;20020;-65
2022/06/20 05:30:00;;;;;;;19.67;5.30;;;;;;;14.73;76.08;101442.81;5052238;28;20025;-65
2022/06/20 05:32:40;;;;;;;16.23;5.13;;;;;;;14.74;76.71;101439.31;5059966;28;20033;-66
2022/06/20 05:35:31;;;;;;;17.45;5.03;;;;;;;14.77;75.64;101430.59;5053639;28;20491;-66
2022/06/20 05:38:11;;;;;;;13.65;4.97;;;;;;;14.76;75.97;101427.09;5054358;28;20029;-65
2022/06/20 05:40:45;;;;;;;12.80;5.20;;;;;;;14.77;76.35;101436.75;5059848;28;20553;-65
2022/06/20 05:43:19;;;;;;;16.83;5.20;;;;;;;14.76;75.63;101419.22;5051750;28;20491;-65
2022/06/20 05:45:49;;;;;;;15.30;5.40;;;;;;;14.80;76.36;101416.66;5052730;28;20444;-66
2022/06/20 05:48:14;;;;;;;14.27;5.18;;;;;;;14.80;77.16;101412.28;5053522;28;20049;-65
2022/06/20 05:50:55;;;;;;;13.65;5.30;;;;;;;14.82;76.37;101420.19;5070565;28;20032;-64
2022/06/20 05:53:27;;;;;;;12.18;5.13;;;;;;;14.81;76.24;101421.06;5072342;28;20078;-65
2022/06/20 05:55:56;;;;;;;14.00;4.80;;;;;;;14.82;76.09;101430.69;5072544;28;20024;-65
2022/06/20 05:58:27;;;;;;;13.00;4.90;;;;;;;14.82;76.52;101435.94;5059600;28;20113;-65
2022/06/20 06:00:55;;;;;;;12.18;4.90;;;;;;;14.83;75.73;101442.94;5063380;28;20492;-65
2022/06/20 06:03:37;;;;;;;17.45;5.07;;;;;;;14.84;75.76;101444.72;5050888;28;20234;-65
2022/06/20 06:06:08;;;;;;;13.23;5.05;;;;;;;14.84;76.06;101437.72;5072118;28;20082;-65
2022/06/20 06:08:56;;;;;;;17.25;5.38;;;;;;;14.85;75.80;101449.97;5062663;28;20432;-65
2022/06/20 06:11:37;;;;;;;11.87;4.53;;;;;;;14.88;75.42;101451.78;5056520;28;20028;-65
2022/06/20 06:14:26;;;;;;;13.68;5.65;;;;;;;14.90;76.21;101444.78;5070693;28;20712;-65
2022/06/20 06:17:08;;;;;;;14.65;5.13;;;;;;;14.92;75.84;101437.84;5071119;28;20491;-65
2022/06/20 06:19:55;;;;;;;11.70;5.60;;;;;;;14.93;75.64;101437.88;5061475;28;20178;-65
2022/06/20 06:22:25;;;;;;;18.02;6.00;;;;;;;14.93;76.43;101445.75;5071649;28;20522;-65
2022/06/20 06:25:00;;;;;;;14.85;5.60;;;;;;;14.94;75.80;101446.63;5058053;28;20535;-65
2022/06/20 06:27:34;;;;;;;13.95;5.45;;;;;;;14.93;75.70;101452.72;5070000;28;20124;-65
2022/06/20 06:30:17;;;;;;;14.45;5.93;;;;;;;14.94;75.15;101451.84;5053405;28;20056;-65
2022/06/20 06:32:46;;;;;;;12.50;5.15;;;;;;;14.95;75.66;101451.00;5062104;28;20040;-65
2022/06/20 06:35:12;;;;;;;;;;;;;;;15.02;74.57;101450.25;5072232;28;20056;-65
2022/06/20 06:38:11;;;;;;;17.00;5.67;;;;;;;15.00;75.16;101448.44;5063217;28;19948;-66
2022/06/20 06:40:48;;;;;;;11.45;5.10;;;;;;;15.00;75.04;101451.06;5039913;28;20044;-66
2022/06/20 06:43:20;;;;;;;15.05;5.57;;;;;;;15.01;74.90;101453.72;5067470;28;20024;-65
2022/06/20 06:45:48;;;;;;;14.82;5.53;;;;;;;15.03;75.61;101457.22;5064483;28;20070;-66
2022/06/20 06:48:22;;;;;;;16.48;5.93;;;;;;;15.06;74.43;101465.19;5070896;28;20052;-65
2022/06/20 06:50:55;;;;;;;14.02;5.32;;;;;;;15.12;74.45;101467.88;5060144;28;20029;-64
2022/06/20 06:53:31;;;;;;;14.93;5.35;;;;;;;15.19;75.15;101475.84;5069174;28;20021;-65
2022/06/20 06:56:02;;;;;;;19.02;5.40;;;;;;;15.25;73.83;101476.84;5070023;28;20056;-65
2022/06/20 06:58:47;;;;;;;14.88;5.05;;;;;;;15.34;74.62;101476.06;5065898;28;20020;-65
2022/06/20 07:01:18;;;;;;;13.90;5.40;;;;;;;15.37;73.19;101472.63;5052207;28;20025;-65
2022/06/20 07:04:13;;;;;;;15.38;5.57;;;;;;;15.43;73.47;101483.19;5059872;28;20051;-65
2022/06/20 07:06:47;;;;;;;13.30;5.38;;;;;;;15.48;72.87;101487.66;5070589;28;20181;-66
2022/06/20 07:09:22;;;;;;;13.00;5.40;;;;;;;15.53;72.13;101489.47;5060225;28;20036;-65
2022/06/20 07:12:03;;;;;;;13.43;5.47;;;;;;;15.57;72.72;101488.63;5045130;28;20116;-65
2022/06/20 07:14:32;;;;;;;15.82;5.28;;;;;;;15.60;72.62;101499.19;5061571;28;20028;-65
2022/06/20 07:17:07;;;;;;;14.02;5.75;;;;;;;15.63;71.78;101505.34;5066732;28;20517;-65
2022/06/20 07:19:36;;;;;;;14.48;5.10;;;;;;;15.67;72.29;101501.03;5066907;28;20020;-65
2022/06/20 07:22:02;;;;;;;;;;;;;;;15.75;72.54;101501.13;5055118;28;20185;-65
2022/06/20 07:24:31;;;;;;;11.55;5.72;;;;;;;15.78;72.32;101491.56;5051885;28;20405;-65
2022/06/20 07:27:13;;;;;;;11.00;5.13;;;;;;;15.86;72.27;101501.28;5060192;28;20024;-65
2022/06/20 07:29:45;;;;;;;15.88;6.15;;;;;;;15.87;70.92;101498.69;5070921;28;20039;-65
2022/06/20 07:32:15;;;;;;;11.00;5.90;;;;;;;15.89;70.89;101503.94;5062908;28;20035;-66
2022/06/20 07:34:51;;;;;;;15.95;5.68;;;;;;;15.86;70.34;101499.56;5055593;28;20108;-65
2022/06/20 07:37:21;;;;;;;11.68;6.43;;;;;;;15.85;70.86;101499.53;5070358;28;20028;-64
2022/06/20 07:39:58;;;;;;;15.77;5.70;;;;;;;15.86;71.74;101498.66;5056741;28;20052;-65
2022/06/20 07:42:51;;;;;;;12.70;4.95;;;;;;;15.89;70.82;101498.69;5070368;28;20160;-65
2022/06/20 07:45:51;;;;;;;13.05;5.53;;;;;;;15.92;71.18;101501.38;5070203;28;20031;-65
2022/06/20 07:48:27;;;;;;;15.45;5.38;;;;;;;15.94;70.43;101499.66;5067632;28;20105;-64
2022/06/20 07:50:55;;;;;;;13.27;5.07;;;;;;;15.94;69.85;101508.41;5070223;28;20104;-64
2022/06/20 07:53:29;;;;;;;12.57;5.80;;;;;;;15.93;69.00;101508.38;5062177;28;20436;-64
2022/06/20 07:56:00;;;;;;;13.13;5.38;;;;;;;15.93;68.94;101511.00;5067123;28;20395;-64
2022/06/20 07:58:32;;;;;;;17.98;5.97;;;;;;;15.97;70.21;101512.81;5065337;28;20254;-65
2022/06/20 08:01:00;;;;;;;12.30;5.93;;;;;;;16.00;69.17;101515.47;5057358;28;20082;-64
2022/06/20 08:03:43;;;;;;;13.85;6.20;;;;;;;16.09;71.62;101512.97;5051976;28;20033;-64
2022/06/20 08:06:31;;;;;;;14.90;5.70;;;;;;;16.17;68.40;101511.28;5054206;28;20058;-66
2022/06/20 08:09:00;;;;;;;12.60;4.72;;;;;;;16.28;67.33;101518.41;5054878;28;20025;-65
2022/06/20 08:11:45;;;;;;;12.13;5.00;;;;;;;16.37;67.29;101523.78;5050019;28;20036;-65
2022/06/20 08:14:20;;;;;;;12.93;5.03;;;;;;;16.46;66.31;101518.63;5068018;28;20031;-64
2022/06/20 08:16:51;;;;;;;16.33;5.18;;;;;;;16.52;66.23;101510.81;5069974;28;20096;-66
2022/06/20 08:19:16;;;;;;;11.45;4.97;;;;;;;16.61;66.24;101517.91;5055742;28;20028;-65
2022/06/20 08:21:46;;;;;;;16.63;5.57;;;;;;;16.74;67.96;101518.00;5063334;28;20036;-66
2022/06/20 08:24:37;;;;;;;14.50;5.53;;;;;;;16.86;67.55;101513.72;5051270;28;20115;-66
2022/06/20 08:27:09;;;;;;;10.77;4.50;;;;;;;16.94;63.50;101508.56;5064937;28;20024;-66
2022/06/20 08:29:39;;;;;;;13.88;5.40;;;;;;;17.08;65.30;101523.59;5069841;28;20032;-65
2022/06/20 08:32:24;;;;;;;18.58;5.70;;;;;;;17.13;63.12;101514.88;5061783;28;20021;-65
2022/06/20 08:35:17;;;;;;;11.90;5.00;;;;;;;17.24;63.79;101525.47;5058291;28;21235;-66
2022/06/20 08:37:54;;;;;;;15.05;5.13;;;;;;;17.36;65.32;101532.56;5047571;28;20043;-59
2022/06/20 08:40:33;;;;;;;11.95;4.90;;;;;;;17.44;63.67;101533.50;5042491;28;20116;-59
2022/06/20 08:43:13;;;;;;;10.25;4.75;;;;;;;17.54;62.62;101534.44;5051822;28;20029;-59
2022/06/20 08:46:11;;;;;;;11.75;4.68;;;;;;;17.63;63.00;101534.47;5036979;28;20040;-59
2022/06/20 08:48:51;;;;;;;14.85;5.13;;;;;;;17.73;61.21;101536.28;5045395;28;20051;-59
2022/06/20 08:52:06;;;;;;;15.00;5.03;;;;;;;17.88;63.57;101535.47;5052103;28;20072;-59
2022/06/20 08:54:47;;;;;;;12.65;5.13;;;;;;;18.00;61.19;101537.34;5043985;28;20048;-59
2022/06/20 08:57:22;;;;;;;14.88;5.55;;;;;;;18.22;65.26;101546.19;5059165;28;20036;-59
2022/06/20 09:00:04;;;;;;;11.88;4.68;;;;;;;18.32;62.29;101539.19;5073822;28;20041;-59
2022/06/20 09:02:35;;;;;;;14.98;5.10;;;;;;;18.34;60.74;101541.84;5068698;28;20017;-59
2022/06/20 09:05:23;;;;;;;12.20;5.40;;;;;;;18.37;60.43;101550.63;5052539;28;20032;-60
2022/06/20 09:08:03;;;;;;;10.13;4.32;;;;;;;18.42;58.92;101558.56;5043491;28;20045;-60
2022/06/20 09:10:32;;;;;;;15.02;5.47;;;;;;;18.54;61.18;101555.09;5040169;28;20055;-60
2022/06/20 09:13:13;;;;;;;14.90;5.60;;;;;;;18.65;62.33;101555.09;5040197;28;20063;-60
2022/06/20 09:15:44;;;;;;;17.58;5.25;;;;;;;18.64;58.16;101553.31;5050655;28;20283;-60
2022/06/20 09:18:18;;;;;;;14.88;5.00;;;;;;;18.60;58.25;101561.25;5066751;28;20480;-59
2022/06/20 09:21:03;;;;;;;11.55;4.72;;;;;;;18.59;59.84;101567.38;5063269;28;20154;-60
2022/06/20 09:23:46;;;;;;;15.25;5.22;;;;;;;18.57;60.07;101569.16;5070795;28;20028;-59
2022/06/20 09:26:45;;;;;;;15.63;5.65;;;;;;;18.54;60.31;101569.16;5059901;28;20029;-59
2022/06/20 09:29:24;;;;;;;14.13;6.00;;;;;;;18.57;61.39;101565.66;5054995;28;20381;-60
2022/06/20 09:32:10;;;;;;;14.57;4.97;;;;;;;18.60;60.03;101561.25;5071640;28;20066;-60
2022/06/20 09:34:45;;;;;;;14.77;5.45;;;;;;;18.64;59.33;101571.81;5073058;28;20119;-60
2022/06/20 09:37:22;;;;;;;12.68;5.10;;;;;;;18.61;59.08;101577.97;5060648;28;20391;-60
2022/06/20 09:40:10;;;;;;;10.23;4.78;;;;;;;18.58;58.22;101580.59;5054267;28;20028;-60
2022/06/20 09:43:13;;;;;;;13.50;5.00;;;;;;;18.68;59.80;101570.94;5049920;28;20067;-60
2022/06/20 09:45:52;;;;;;;12.32;4.97;;;;;;;18.78;57.90;101575.34;5039431;28;20060;-60
2022/06/20 09:48:32;;;;;;;12.47;4.67;;;;;;;18.91;57.74;101574.50;5038843;28;20045;-65
2022/06/20 09:51:03;;;;;;;10.32;4.90;;;;;;;18.98;55.71;101569.25;5040035;28;20369;-65
2022/06/20 09:53:47;;;;;;;12.35;5.65;;;;;;;19.12;60.10;101562.19;5039130;28;20029;-65
2022/06/20 09:56:30;;;;;;;12.35;5.43;;;;;;;19.25;56.76;101553.38;5040612;28;20439;-65
2022/06/20 09:59:02;;;;;;;17.65;5.63;;;;;;;19.34;56.43;101557.78;5042993;28;20060;-65
2022/06/20 10:01:50;;;;;;;15.98;5.50;;;;;;;19.40;56.54;101559.53;5054985;28;20017;-65
2022/06/20 10:04:18;;;;;;;16.77;5.80;;;;;;;19.48;54.67;101562.16;5052389;28;20016;-65
2022/06/20 10:07:10;;;;;;;16.25;6.35;;;;;;;19.61;58.16;101561.22;5055364;28;20056;-64
2022/06/20 10:09:45;;;;;;;13.60;5.78;;;;;;;19.62;55.82;101563.91;5054255;28;20471;-64
2022/06/20 10:12:29;;;;;;;15.25;6.38;;;;;;;19.63;53.05;101564.78;5071867;28;20024;-64
2022/06/20 10:15:31;;;;;;;15.15;5.82;;;;;;;19.66;56.18;101569.19;5071309;28;20074;-64
2022/06/20 10:18:16;;;;;;;12.23;5.53;;;;;;;19.71;57.23;101567.38;5066167;28;20065;-60
2022/06/20 10:21:01;;;;;;;15.43;5.90;;;;;;;19.79;56.05;101568.28;5054774;28;20647;-59
2022/06/20 10:23:58;;;;;;;14.40;6.80;;;;;;;19.85;56.04;101570.03;5039857;28;20086;-59
2022/06/20 10:26:23;;;;;;;17.20;6.80;;;;;;;19.91;57.49;101581.44;5037245;28;20103;-59
2022/06/20 10:29:03;;;;;;;17.65;7.15;;;;;;;19.98;56.64;101584.97;5041995;28;20124;-59
2022/06/20 10:31:38;;;;;;;15.93;7.53;;;;;;;20.04;55.91;101581.41;5061877;28;20033;-60
2022/06/20 10:34:03;;;;;;;15.15;7.13;;;;;;;20.08;52.09;101577.88;5052659;28;20351;-60
2022/06/20 10:36:48;;;;;;;16.17;7.13;;;;;;;20.13;53.76;101587.56;5041335;28;21130;-58
2022/06/20 10:39:22;;;;;;;18.13;7.50;;;;;;;20.20;54.74;101585.75;5056861;28;20491;-59
2022/06/20 10:42:04;;;;;;;16.75;7.20;;;;;;;20.24;54.70;101584.84;5040532;28;20029;-60
2022/06/20 10:44:48;;;;;;;15.07;6.80;;;;;;;20.32;54.95;101596.28;5038641;28;20022;-60
2022/06/20 10:47:23;;;;;;;15.13;6.63;;;;;;;20.41;53.50;101597.16;5035502;28;20420;-60
2022/06/20 10:50:31;;;;;;;18.92;7.00;;;;;;;20.49;54.80;101596.22;5038701;28;20033;-60
2022/06/20 10:53:32;;;;;;;14.23;6.65;;;;;;;20.53;53.54;101601.50;4967330;28;20487;-60
2022/06/20 10:56:39;;;;;;;13.32;6.28;;;;;;;20.59;53.16;101606.75;5037571;28;20048;-60
2022/06/20 10:59:31;;;;;;;12.70;6.28;;;;;;;20.63;53.77;101600.53;5036889;28;20044;-60
2022/06/20 11:02:28;;;;;;;13.70;6.53;;;;;;;20.71;53.64;101605.81;5037098;28;20344;-59
2022/06/20 11:05:05;;;;;;;14.07;6.05;;;;;;;20.79;50.42;101606.66;5037756;28;20028;-60
2022/06/20 11:07:39;;;;;;;12.98;6.70;;;;;;;20.87;50.06;101609.25;5038214;28;20397;-60
2022/06/20 11:10:29;;;;;;;13.52;6.43;;;;;;;20.90;51.70;101612.78;5035577;28;20041;-60
2022/06/20 11:13:13;;;;;;;12.10;6.68;;;;;;;20.90;51.85;101622.47;5037057;28;20041;-59
2022/06/20 11:16:08;;;;;;;13.07;6.53;;;;;;;20.97;54.10;101621.53;5038665;28;20029;-60
2022/06/20 11:19:03;;;;;;;13.52;6.90;;;;;;;21.05;52.69;101611.75;5040082;28;20128;-60
2022/06/20 11:21:38;;;;;;;13.82;6.60;;;;;;;21.06;51.23;101613.53;5038181;28;20017;-60
2022/06/20 11:24:21;;;;;;;13.43;6.60;;;;;;;21.12;51.60;101618.78;5032943;28;20032;-59
2022/06/20 11:27:23;;;;;;;15.05;6.80;;;;;;;21.19;52.28;101609.00;5036109;28;20930;-60
2022/06/20 11:29:57;;;;;;;20.60;7.22;;;;;;;21.30;53.45;101617.72;5035381;28;20048;-60
2022/06/20 11:32:45;;;;;;;17.00;6.80;;;;;;;21.41;53.98;101616.78;5033599;28;20503;-59
2022/06/20 11:35:21;;;;;;;14.63;6.88;;;;;;;21.52;53.76;101621.13;5034996;28;20711;-59
2022/06/20 11:37:59;;;;;;;12.85;6.63;;;;;;;21.62;52.53;101624.53;5031213;28;20057;-59
2022/06/20 11:40:50;;;;;;;14.52;6.38;;;;;;;21.69;51.98;101605.00;5028999;28;20526;-59
2022/06/20 11:43:49;;;;;;;17.30;6.97;;;;;;;21.71;50.84;101608.56;5032096;28;20025;-59
2022/06/20 11:46:15;;;;;;;13.10;6.10;;;;;;;21.69;49.29;101605.00;5037965;28;20024;-59
2022/06/20 11:49:10;;;;;;;11.05;5.82;;;;;;;21.64;48.91;101611.28;5035936;28;20040;-59
2022/06/20 11:52:07;;;;;;;12.02;6.00;;;;;;;21.63;50.21;101604.22;5029251;28;20106;-60
2022/06/20 11:55:11;;;;;;;15.17;5.80;;;;;;;21.65;51.38;101613.03;5029621;28;20431;-60
2022/06/20 11:58:00;;;;;;;15.52;6.97;;;;;;;21.74;52.41;101618.25;5036683;28;20025;-60
2022/06/20 12:00:33;;;;;;;13.32;6.10;;;;;;;21.77;50.41;101606.72;5031311;28;20052;-60
2022/06/20 12:03:05;;;;;;;13.18;6.40;;;;;;;21.81;49.62;101608.44;5031556;28;20024;-61
2022/06/20 12:05:37;;;;;;;13.23;6.07;;;;;;;21.83;47.18;101601.34;5034356;28;20056;-60
2022/06/20 12:08:32;;;;;;;12.70;5.30;;;;;;;21.84;49.00;101616.34;5030208;28;20023;-60